sensor_id;sensor_type;location;lat;lon;timestamp;P1;durP1;ratioP1;P2;durP2;ratioP2
26377;SDS011;14078;50.974;6.786;2024-02-15T00:00:18;5.18;;;2.03;;
26377;SDS011;14078;50.974;6.786;2024-02-15T00:02:45;7.25;;;2.40;;
26377;SDS011;14078;50.974;6.786;2024-02-15T00:05:13;5.57;;;1.98;;
26377;SDS011;14078;50.974;6.786;2024-02-15T00:07:41;8.13;;;1.92;;
26377;SDS011;14078;50.974;6.786;2024-02-15T00:10:09;8.68;;;1.90;;
26377;SDS011;14078;50.974;6.786;2024-02-15T00:12:36;6.28;;;1.85;;
26377;SDS011;14078;50.974;6.786;2024-02-15T00:15:03;3.88;;;2.00;;
26377;SDS011;14078;50.974;6.786;2024-02-15T00:17:31;3.75;;;2.08;;
26377;SDS011;14078;50.974;6.786;2024-02-15T00:19:58;5.03;;;1.80;;
26377;SDS011;14078;50.974;6.786;2024-02-15T00:22:26;4.88;;;2.33;;
26377;SDS011;14078;50.974;6.786;2024-02-15T00:24:53;7.80;;;2.00;;
26377;SDS011;14078;50.974;6.786;2024-02-15T00:27:19;5.65;;;2.40;;
26377;SDS011;14078;50.974;6.786;2024-02-15T00:29:46;9.48;;;2.20;;
26377;SDS011;14078;50.974;6.786;2024-02-15T00:32:13;7.47;;;2.10;;
26377;SDS011;14078;50.974;6.786;2024-02-15T00:34:39;3.03;;;2.53;;
26377;SDS011;14078;50.974;6.786;2024-02-15T00:37:06;2.90;;;1.75;;
26377;SDS011;14078;50.974;6.786;2024-02-15T00:39:34;6.07;;;2.67;;
26377;SDS011;14078;50.974;6.786;2024-02-15T00:42:01;6.57;;;2.28;;
26377;SDS011;14078;50.974;6.786;2024-02-15T00:44:28;2.20;;;1.85;;
26377;SDS011;14078;50.974;6.786;2024-02-15T00:46:55;7.65;;;2.60;;
26377;SDS011;14078;50.974;6.786;2024-02-15T00:49:22;5.25;;;2.45;;
26377;SDS011;14078;50.974;6.786;2024-02-15T00:51:48;5.35;;;2.40;;
26377;SDS011;14078;50.974;6.786;2024-02-15T00:54:15;5.18;;;1.90;;
26377;SDS011;14078;50.974;6.786;2024-02-15T00:56:43;10.50;;;2.70;;
26377;SDS011;14078;50.974;6.786;2024-02-15T00:59:10;4.95;;;1.75;;
26377;SDS011;14078;50.974;6.786;2024-02-15T01:01:37;6.47;;;2.10;;
26377;SDS011;14078;50.974;6.786;2024-02-15T01:04:03;6.13;;;2.05;;
26377;SDS011;14078;50.974;6.786;2024-02-15T01:06:30;4.90;;;2.13;;
26377;SDS011;14078;50.974;6.786;2024-02-15T01:08:57;2.60;;;1.90;;
26377;SDS011;14078;50.974;6.786;2024-02-15T01:11:26;5.18;;;2.50;;
26377;SDS011;14078;50.974;6.786;2024-02-15T01:13:55;7.03;;;2.80;;
26377;SDS011;14078;50.974;6.786;2024-02-15T01:16:21;4.35;;;1.90;;
26377;SDS011;14078;50.974;6.786;2024-02-15T01:18:49;5.13;;;2.05;;
26377;SDS011;14078;50.974;6.786;2024-02-15T01:21:16;8.90;;;1.90;;
26377;SDS011;14078;50.974;6.786;2024-02-15T01:23:44;5.60;;;2.05;;
26377;SDS011;14078;50.974;6.786;2024-02-15T01:26:11;6.70;;;1.77;;
26377;SDS011;14078;50.974;6.786;2024-02-15T01:28:39;3.53;;;2.20;;
26377;SDS011;14078;50.974;6.786;2024-02-15T01:31:09;5.07;;;1.92;;
26377;SDS011;14078;50.974;6.786;2024-02-15T01:33:37;6.78;;;2.83;;
26377;SDS011;14078;50.974;6.786;2024-02-15T01:36:05;7.82;;;1.90;;
26377;SDS011;14078;50.974;6.786;2024-02-15T01:38:32;4.63;;;2.72;;
26377;SDS011;14078;50.974;6.786;2024-02-15T01:40:59;2.97;;;2.17;;
26377;SDS011;14078;50.974;6.786;2024-02-15T01:43:25;7.10;;;2.50;;
26377;SDS011;14078;50.974;6.786;2024-02-15T01:45:52;4.75;;;2.38;;
26377;SDS011;14078;50.974;6.786;2024-02-15T01:48:20;4.90;;;2.20;;
26377;SDS011;14078;50.974;6.786;2024-02-15T01:50:47;2.67;;;2.20;;
26377;SDS011;14078;50.974;6.786;2024-02-15T01:55:43;9.02;;;2.03;;
26377;SDS011;14078;50.974;6.786;2024-02-15T01:58:10;6.75;;;2.10;;
26377;SDS011;14078;50.974;6.786;2024-02-15T02:00:36;6.63;;;2.13;;
26377;SDS011;14078;50.974;6.786;2024-02-15T02:03:04;3.92;;;1.73;;
26377;SDS011;14078;50.974;6.786;2024-02-15T02:05:32;4.20;;;2.00;;
26377;SDS011;14078;50.974;6.786;2024-02-15T02:07:58;2.50;;;1.88;;
26377;SDS011;14078;50.974;6.786;2024-02-15T02:10:29;5.30;;;1.98;;
26377;SDS011;14078;50.974;6.786;2024-02-15T02:12:57;3.60;;;1.90;;
26377;SDS011;14078;50.974;6.786;2024-02-15T02:15:24;2.55;;;1.75;;
26377;SDS011;14078;50.974;6.786;2024-02-15T02:17:51;3.70;;;2.28;;
26377;SDS011;14078;50.974;6.786;2024-02-15T02:20:19;3.00;;;2.50;;
26377;SDS011;14078;50.974;6.786;2024-02-15T02:22:48;4.70;;;2.03;;
26377;SDS011;14078;50.974;6.786;2024-02-15T02:25:21;3.10;;;1.83;;
26377;SDS011;14078;50.974;6.786;2024-02-15T02:27:51;4.03;;;1.70;;
26377;SDS011;14078;50.974;6.786;2024-02-15T02:30:18;3.28;;;1.80;;
26377;SDS011;14078;50.974;6.786;2024-02-15T02:32:50;2.58;;;1.67;;
26377;SDS011;14078;50.974;6.786;2024-02-15T02:35:16;2.38;;;1.58;;
26377;SDS011;14078;50.974;6.786;2024-02-15T02:37:45;2.47;;;1.70;;
26377;SDS011;14078;50.974;6.786;2024-02-15T02:40:12;2.85;;;1.70;;
26377;SDS011;14078;50.974;6.786;2024-02-15T02:42:47;2.00;;;1.73;;
26377;SDS011;14078;50.974;6.786;2024-02-15T02:45:15;2.28;;;1.58;;
26377;SDS011;14078;50.974;6.786;2024-02-15T02:47:41;2.38;;;1.50;;
26377;SDS011;14078;50.974;6.786;2024-02-15T02:50:08;3.17;;;1.67;;
26377;SDS011;14078;50.974;6.786;2024-02-15T02:52:35;2.28;;;1.48;;
26377;SDS011;14078;50.974;6.786;2024-02-15T02:55:04;2.50;;;1.60;;
26377;SDS011;14078;50.974;6.786;2024-02-15T03:00:01;2.67;;;1.67;;
26377;SDS011;14078;50.974;6.786;2024-02-15T03:02:32;5.35;;;1.70;;
26377;SDS011;14078;50.974;6.786;2024-02-15T03:05:00;2.78;;;1.83;;
26377;SDS011;14078;50.974;6.786;2024-02-15T03:07:27;1.58;;;1.30;;
26377;SDS011;14078;50.974;6.786;2024-02-15T03:09:54;1.50;;;1.30;;
26377;SDS011;14078;50.974;6.786;2024-02-15T03:12:21;1.65;;;1.38;;
26377;SDS011;14078;50.974;6.786;2024-02-15T03:14:47;1.77;;;1.38;;
26377;SDS011;14078;50.974;6.786;2024-02-15T03:17:15;3.10;;;1.58;;
26377;SDS011;14078;50.974;6.786;2024-02-15T03:19:42;1.90;;;1.33;;
26377;SDS011;14078;50.974;6.786;2024-02-15T03:22:09;2.58;;;1.38;;
26377;SDS011;14078;50.974;6.786;2024-02-15T03:24:38;1.85;;;1.30;;
26377;SDS011;14078;50.974;6.786;2024-02-15T03:27:05;4.75;;;2.47;;
26377;SDS011;14078;50.974;6.786;2024-02-15T03:29:32;4.30;;;1.60;;
26377;SDS011;14078;50.974;6.786;2024-02-15T03:32:00;1.75;;;1.65;;
26377;SDS011;14078;50.974;6.786;2024-02-15T03:34:30;4.10;;;1.67;;
26377;SDS011;14078;50.974;6.786;2024-02-15T03:36:57;3.65;;;1.30;;
26377;SDS011;14078;50.974;6.786;2024-02-15T03:39:24;1.80;;;1.40;;
26377;SDS011;14078;50.974;6.786;2024-02-15T03:41:50;3.10;;;1.08;;
26377;SDS011;14078;50.974;6.786;2024-02-15T03:44:18;3.15;;;1.55;;
26377;SDS011;14078;50.974;6.786;2024-02-15T03:46:45;1.90;;;1.50;;
26377;SDS011;14078;50.974;6.786;2024-02-15T03:49:15;2.55;;;1.58;;
26377;SDS011;14078;50.974;6.786;2024-02-15T03:51:43;2.85;;;1.90;;
26377;SDS011;14078;50.974;6.786;2024-02-15T03:54:10;5.30;;;1.63;;
26377;SDS011;14078;50.974;6.786;2024-02-15T03:56:37;1.98;;;1.40;;
26377;SDS011;14078;50.974;6.786;2024-02-15T03:59:17;7.55;;;1.77;;
26377;SDS011;14078;50.974;6.786;2024-02-15T04:01:46;2.75;;;1.48;;
26377;SDS011;14078;50.974;6.786;2024-02-15T04:04:13;1.90;;;1.45;;
26377;SDS011;14078;50.974;6.786;2024-02-15T04:06:40;1.98;;;1.63;;
26377;SDS011;14078;50.974;6.786;2024-02-15T04:09:09;4.80;;;1.67;;
26377;SDS011;14078;50.974;6.786;2024-02-15T04:11:36;1.55;;;1.15;;
26377;SDS011;14078;50.974;6.786;2024-02-15T04:14:03;3.05;;;1.60;;
26377;SDS011;14078;50.974;6.786;2024-02-15T04:16:30;1.90;;;1.50;;
26377;SDS011;14078;50.974;6.786;2024-02-15T04:18:58;5.50;;;1.90;;
26377;SDS011;14078;50.974;6.786;2024-02-15T04:21:26;2.20;;;2.00;;
26377;SDS011;14078;50.974;6.786;2024-02-15T04:23:53;3.30;;;2.00;;
26377;SDS011;14078;50.974;6.786;2024-02-15T04:26:21;5.43;;;2.70;;
26377;SDS011;14078;50.974;6.786;2024-02-15T04:28:51;3.20;;;1.67;;
26377;SDS011;14078;50.974;6.786;2024-02-15T04:31:18;3.35;;;2.03;;
26377;SDS011;14078;50.974;6.786;2024-02-15T04:33:51;3.72;;;2.22;;
26377;SDS011;14078;50.974;6.786;2024-02-15T04:36:18;2.63;;;2.03;;
26377;SDS011;14078;50.974;6.786;2024-02-15T04:38:48;3.10;;;2.40;;
26377;SDS011;14078;50.974;6.786;2024-02-15T04:41:15;6.13;;;2.10;;
26377;SDS011;14078;50.974;6.786;2024-02-15T04:43:45;4.50;;;2.10;;
26377;SDS011;14078;50.974;6.786;2024-02-15T04:46:12;2.72;;;2.13;;
26377;SDS011;14078;50.974;6.786;2024-02-15T04:48:39;2.25;;;2.00;;
26377;SDS011;14078;50.974;6.786;2024-02-15T04:51:06;2.88;;;1.95;;
26377;SDS011;14078;50.974;6.786;2024-02-15T04:53:33;3.22;;;2.30;;
26377;SDS011;14078;50.974;6.786;2024-02-15T04:56:01;4.03;;;2.20;;
26377;SDS011;14078;50.974;6.786;2024-02-15T04:58:34;2.90;;;1.65;;
26377;SDS011;14078;50.974;6.786;2024-02-15T05:01:03;1.98;;;1.77;;
26377;SDS011;14078;50.974;6.786;2024-02-15T05:03:31;2.65;;;2.28;;
26377;SDS011;14078;50.974;6.786;2024-02-15T05:05:59;4.10;;;2.22;;
26377;SDS011;14078;50.974;6.786;2024-02-15T05:08:26;4.45;;;2.08;;
26377;SDS011;14078;50.974;6.786;2024-02-15T05:10:56;6.35;;;2.10;;
26377;SDS011;14078;50.974;6.786;2024-02-15T05:13:24;3.17;;;1.98;;
26377;SDS011;14078;50.974;6.786;2024-02-15T05:15:51;5.60;;;2.63;;
26377;SDS011;14078;50.974;6.786;2024-02-15T05:18:19;6.43;;;2.40;;
26377;SDS011;14078;50.974;6.786;2024-02-15T05:20:45;2.97;;;2.40;;
26377;SDS011;14078;50.974;6.786;2024-02-15T05:23:12;5.57;;;2.00;;
26377;SDS011;14078;50.974;6.786;2024-02-15T05:25:39;7.00;;;2.40;;
26377;SDS011;14078;50.974;6.786;2024-02-15T05:28:06;2.88;;;2.17;;
26377;SDS011;14078;50.974;6.786;2024-02-15T05:30:33;7.38;;;2.53;;
26377;SDS011;14078;50.974;6.786;2024-02-15T05:33:02;3.53;;;2.38;;
26377;SDS011;14078;50.974;6.786;2024-02-15T05:35:32;2.75;;;2.47;;
26377;SDS011;14078;50.974;6.786;2024-02-15T05:38:00;3.17;;;2.38;;
26377;SDS011;14078;50.974;6.786;2024-02-15T05:40:29;4.18;;;2.65;;
26377;SDS011;14078;50.974;6.786;2024-02-15T05:42:56;3.92;;;2.25;;
26377;SDS011;14078;50.974;6.786;2024-02-15T05:45:30;3.65;;;2.70;;
26377;SDS011;14078;50.974;6.786;2024-02-15T05:48:02;6.05;;;2.60;;
26377;SDS011;14078;50.974;6.786;2024-02-15T05:50:33;7.70;;;2.80;;
26377;SDS011;14078;50.974;6.786;2024-02-15T05:53:00;4.10;;;2.65;;
26377;SDS011;14078;50.974;6.786;2024-02-15T05:55:26;6.90;;;3.13;;
26377;SDS011;14078;50.974;6.786;2024-02-15T05:57:54;3.30;;;2.60;;
26377;SDS011;14078;50.974;6.786;2024-02-15T06:00:21;5.57;;;3.55;;
26377;SDS011;14078;50.974;6.786;2024-02-15T06:02:47;5.57;;;3.63;;
26377;SDS011;14078;50.974;6.786;2024-02-15T06:05:15;3.92;;;3.17;;
26377;SDS011;14078;50.974;6.786;2024-02-15T06:07:44;5.97;;;3.33;;
26377;SDS011;14078;50.974;6.786;2024-02-15T06:10:11;4.57;;;3.38;;
26377;SDS011;14078;50.974;6.786;2024-02-15T06:12:40;4.55;;;3.25;;
26377;SDS011;14078;50.974;6.786;2024-02-15T06:15:08;7.88;;;3.50;;
26377;SDS011;14078;50.974;6.786;2024-02-15T06:17:40;4.18;;;2.83;;
26377;SDS011;14078;50.974;6.786;2024-02-15T06:20:09;2.40;;;2.17;;
26377;SDS011;14078;50.974;6.786;2024-02-15T06:22:38;4.20;;;2.70;;
26377;SDS011;14078;50.974;6.786;2024-02-15T06:25:06;5.32;;;3.60;;
26377;SDS011;14078;50.974;6.786;2024-02-15T06:27:35;5.95;;;3.60;;
26377;SDS011;14078;50.974;6.786;2024-02-15T06:30:06;5.70;;;3.40;;
26377;SDS011;14078;50.974;6.786;2024-02-15T06:32:51;3.83;;;3.17;;
26377;SDS011;14078;50.974;6.786;2024-02-15T06:35:35;4.35;;;2.88;;
26377;SDS011;14078;50.974;6.786;2024-02-15T06:38:20;8.80;;;3.10;;
26377;SDS011;14078;50.974;6.786;2024-02-15T06:41:05;5.15;;;3.50;;
26377;SDS011;14078;50.974;6.786;2024-02-15T06:43:32;4.55;;;3.75;;
26377;SDS011;14078;50.974;6.786;2024-02-15T06:45:59;7.18;;;3.30;;
26377;SDS011;14078;50.974;6.786;2024-02-15T06:48:26;7.32;;;3.58;;
26377;SDS011;14078;50.974;6.786;2024-02-15T06:50:53;6.90;;;3.70;;
26377;SDS011;14078;50.974;6.786;2024-02-15T06:53:20;8.55;;;3.22;;
26377;SDS011;14078;50.974;6.786;2024-02-15T06:55:47;6.60;;;3.80;;
26377;SDS011;14078;50.974;6.786;2024-02-15T06:58:15;5.35;;;3.30;;
26377;SDS011;14078;50.974;6.786;2024-02-15T07:00:42;6.82;;;3.20;;
26377;SDS011;14078;50.974;6.786;2024-02-15T07:03:09;4.80;;;3.05;;
26377;SDS011;14078;50.974;6.786;2024-02-15T07:05:36;6.25;;;3.40;;
26377;SDS011;14078;50.974;6.786;2024-02-15T07:08:03;5.53;;;3.33;;
26377;SDS011;14078;50.974;6.786;2024-02-15T07:10:31;6.43;;;3.20;;
26377;SDS011;14078;50.974;6.786;2024-02-15T07:12:58;3.67;;;3.28;;
26377;SDS011;14078;50.974;6.786;2024-02-15T07:15:26;6.80;;;3.53;;
26377;SDS011;14078;50.974;6.786;2024-02-15T07:17:53;6.85;;;3.47;;
26377;SDS011;14078;50.974;6.786;2024-02-15T07:20:19;7.28;;;2.95;;
26377;SDS011;14078;50.974;6.786;2024-02-15T07:22:48;4.18;;;3.65;;
26377;SDS011;14078;50.974;6.786;2024-02-15T07:25:14;3.90;;;3.28;;
26377;SDS011;14078;50.974;6.786;2024-02-15T07:27:41;5.43;;;2.85;;
26377;SDS011;14078;50.974;6.786;2024-02-15T07:30:08;7.13;;;3.63;;
26377;SDS011;14078;50.974;6.786;2024-02-15T07:32:37;10.77;;;3.53;;
26377;SDS011;14078;50.974;6.786;2024-02-15T07:35:04;5.15;;;3.45;;
26377;SDS011;14078;50.974;6.786;2024-02-15T07:37:32;8.97;;;4.27;;
26377;SDS011;14078;50.974;6.786;2024-02-15T07:39:59;5.18;;;3.20;;
26377;SDS011;14078;50.974;6.786;2024-02-15T07:42:28;3.45;;;2.97;;
26377;SDS011;14078;50.974;6.786;2024-02-15T07:44:55;9.07;;;3.83;;
26377;SDS011;14078;50.974;6.786;2024-02-15T07:47:22;3.58;;;2.97;;
26377;SDS011;14078;50.974;6.786;2024-02-15T07:49:50;7.47;;;2.58;;
26377;SDS011;14078;50.974;6.786;2024-02-15T07:52:17;6.40;;;3.00;;
26377;SDS011;14078;50.974;6.786;2024-02-15T07:54:44;6.70;;;2.95;;
26377;SDS011;14078;50.974;6.786;2024-02-15T07:57:11;7.20;;;2.25;;
26377;SDS011;14078;50.974;6.786;2024-02-15T07:59:39;4.18;;;2.92;;
26377;SDS011;14078;50.974;6.786;2024-02-15T08:02:07;7.03;;;3.10;;
26377;SDS011;14078;50.974;6.786;2024-02-15T08:04:34;9.60;;;2.85;;
26377;SDS011;14078;50.974;6.786;2024-02-15T08:07:06;4.20;;;2.42;;
26377;SDS011;14078;50.974;6.786;2024-02-15T08:09:35;7.20;;;2.53;;
26377;SDS011;14078;50.974;6.786;2024-02-15T08:12:02;4.78;;;3.03;;
26377;SDS011;14078;50.974;6.786;2024-02-15T08:14:29;4.18;;;2.63;;
26377;SDS011;14078;50.974;6.786;2024-02-15T08:16:56;9.95;;;4.93;;
26377;SDS011;14078;50.974;6.786;2024-02-15T08:19:23;6.25;;;2.90;;
26377;SDS011;14078;50.974;6.786;2024-02-15T08:21:49;5.20;;;3.13;;
26377;SDS011;14078;50.974;6.786;2024-02-15T08:24:18;5.60;;;2.63;;
26377;SDS011;14078;50.974;6.786;2024-02-15T08:26:45;3.85;;;2.60;;
26377;SDS011;14078;50.974;6.786;2024-02-15T08:29:12;4.68;;;3.17;;
26377;SDS011;14078;50.974;6.786;2024-02-15T08:31:40;4.00;;;2.88;;
26377;SDS011;14078;50.974;6.786;2024-02-15T08:34:07;6.80;;;3.53;;
26377;SDS011;14078;50.974;6.786;2024-02-15T08:36:39;3.63;;;3.10;;
26377;SDS011;14078;50.974;6.786;2024-02-15T08:39:05;4.63;;;3.15;;
26377;SDS011;14078;50.974;6.786;2024-02-15T08:41:34;6.85;;;2.90;;
26377;SDS011;14078;50.974;6.786;2024-02-15T08:44:01;8.43;;;3.00;;
26377;SDS011;14078;50.974;6.786;2024-02-15T08:46:33;4.57;;;2.92;;
26377;SDS011;14078;50.974;6.786;2024-02-15T08:49:01;7.60;;;3.03;;
26377;SDS011;14078;50.974;6.786;2024-02-15T08:51:28;7.03;;;2.97;;
26377;SDS011;14078;50.974;6.786;2024-02-15T08:53:55;12.63;;;3.03;;
26377;SDS011;14078;50.974;6.786;2024-02-15T08:56:21;5.22;;;3.15;;
26377;SDS011;14078;50.974;6.786;2024-02-15T08:58:50;10.20;;;3.05;;
26377;SDS011;14078;50.974;6.786;2024-02-15T09:01:16;4.72;;;3.05;;
26377;SDS011;14078;50.974;6.786;2024-02-15T09:03:43;8.93;;;3.30;;
26377;SDS011;14078;50.974;6.786;2024-02-15T09:06:10;4.38;;;3.15;;
26377;SDS011;14078;50.974;6.786;2024-02-15T09:08:36;5.70;;;2.70;;
26377;SDS011;14078;50.974;6.786;2024-02-15T09:11:04;2.90;;;2.30;;
26377;SDS011;14078;50.974;6.786;2024-02-15T09:13:30;4.45;;;2.28;;
26377;SDS011;14078;50.974;6.786;2024-02-15T09:15:58;3.67;;;2.00;;
26377;SDS011;14078;50.974;6.786;2024-02-15T09:18:25;5.75;;;2.40;;
26377;SDS011;14078;50.974;6.786;2024-02-15T09:20:52;6.68;;;2.22;;
26377;SDS011;14078;50.974;6.786;2024-02-15T09:23:20;2.90;;;1.90;;
26377;SDS011;14078;50.974;6.786;2024-02-15T09:25:48;5.70;;;1.95;;
26377;SDS011;14078;50.974;6.786;2024-02-15T09:28:16;2.45;;;1.98;;
26377;SDS011;14078;50.974;6.786;2024-02-15T09:30:46;3.60;;;2.05;;
26377;SDS011;14078;50.974;6.786;2024-02-15T09:33:15;5.63;;;2.80;;
26377;SDS011;14078;50.974;6.786;2024-02-15T09:35:41;9.73;;;2.38;;
26377;SDS011;14078;50.974;6.786;2024-02-15T09:38:08;4.97;;;2.50;;
26377;SDS011;14078;50.974;6.786;2024-02-15T09:40:35;5.15;;;1.90;;
26377;SDS011;14078;50.974;6.786;2024-02-15T09:43:01;4.60;;;2.58;;
26377;SDS011;14078;50.974;6.786;2024-02-15T09:45:29;2.67;;;2.33;;
26377;SDS011;14078;50.974;6.786;2024-02-15T09:47:58;10.10;;;3.03;;
26377;SDS011;14078;50.974;6.786;2024-02-15T09:50:31;3.40;;;2.65;;
26377;SDS011;14078;50.974;6.786;2024-02-15T09:53:00;9.48;;;2.70;;
26377;SDS011;14078;50.974;6.786;2024-02-15T09:55:31;4.38;;;2.38;;
26377;SDS011;14078;50.974;6.786;2024-02-15T09:58:00;4.85;;;2.15;;
26377;SDS011;14078;50.974;6.786;2024-02-15T10:00:29;6.13;;;3.22;;
26377;SDS011;14078;50.974;6.786;2024-02-15T10:02:57;4.60;;;1.90;;
26377;SDS011;14078;50.974;6.786;2024-02-15T10:07:54;2.80;;;2.13;;
26377;SDS011;14078;50.974;6.786;2024-02-15T10:10:21;4.25;;;2.25;;
26377;SDS011;14078;50.974;6.786;2024-02-15T10:15:29;2.38;;;1.83;;
26377;SDS011;14078;50.974;6.786;2024-02-15T10:18:00;3.63;;;2.58;;
26377;SDS011;14078;50.974;6.786;2024-02-15T10:20:28;6.87;;;2.27;;
26377;SDS011;14078;50.974;6.786;2024-02-15T10:25:35;5.65;;;2.10;;
26377;SDS011;14078;50.974;6.786;2024-02-15T10:28:02;2.47;;;2.28;;
26377;SDS011;14078;50.974;6.786;2024-02-15T10:30:32;4.15;;;2.28;;
26377;SDS011;14078;50.974;6.786;2024-02-15T10:32:59;3.92;;;2.03;;
26377;SDS011;14078;50.974;6.786;2024-02-15T10:35:26;4.95;;;2.05;;
26377;SDS011;14078;50.974;6.786;2024-02-15T10:38:06;2.40;;;1.80;;
26377;SDS011;14078;50.974;6.786;2024-02-15T10:40:35;6.38;;;1.73;;
26377;SDS011;14078;50.974;6.786;2024-02-15T10:43:03;2.40;;;1.48;;
26377;SDS011;14078;50.974;6.786;2024-02-15T10:45:30;2.15;;;1.95;;
26377;SDS011;14078;50.974;6.786;2024-02-15T10:47:58;5.72;;;1.98;;
26377;SDS011;14078;50.974;6.786;2024-02-15T10:50:24;4.65;;;1.95;;
26377;SDS011;14078;50.974;6.786;2024-02-15T10:52:54;6.10;;;1.70;;
26377;SDS011;14078;50.974;6.786;2024-02-15T10:55:24;2.65;;;2.03;;
26377;SDS011;14078;50.974;6.786;2024-02-15T10:57:58;4.78;;;1.70;;
26377;SDS011;14078;50.974;6.786;2024-02-15T11:00:29;4.45;;;2.20;;
26377;SDS011;14078;50.974;6.786;2024-02-15T11:03:02;2.80;;;1.90;;
26377;SDS011;14078;50.974;6.786;2024-02-15T11:05:31;5.43;;;2.10;;
26377;SDS011;14078;50.974;6.786;2024-02-15T11:07:59;1.87;;;1.33;;
26377;SDS011;14078;50.974;6.786;2024-02-15T11:10:28;3.83;;;1.95;;
26377;SDS011;14078;50.974;6.786;2024-02-15T11:12:55;4.35;;;1.77;;
26377;SDS011;14078;50.974;6.786;2024-02-15T11:20:55;3.20;;;1.50;;
26377;SDS011;14078;50.974;6.786;2024-02-15T11:23:27;1.77;;;1.38;;
26377;SDS011;14078;50.974;6.786;2024-02-15T11:25:56;3.53;;;1.60;;
26377;SDS011;14078;50.974;6.786;2024-02-15T11:28:38;5.97;;;2.08;;
26377;SDS011;14078;50.974;6.786;2024-02-15T15:26:19;5.00;;;1.25;;
26377;SDS011;14078;50.974;6.786;2024-02-15T15:28:46;3.28;;;1.30;;
26377;SDS011;14078;50.974;6.786;2024-02-15T15:31:14;2.17;;;1.00;;
26377;SDS011;14078;50.974;6.786;2024-02-15T15:33:42;3.70;;;1.30;;
26377;SDS011;14078;50.974;6.786;2024-02-15T15:36:09;4.43;;;1.20;;
26377;SDS011;14078;50.974;6.786;2024-02-15T15:38:36;1.95;;;1.25;;
26377;SDS011;14078;50.974;6.786;2024-02-15T15:41:03;1.85;;;1.25;;
26377;SDS011;14078;50.974;6.786;2024-02-15T15:43:29;2.47;;;1.23;;
26377;SDS011;14078;50.974;6.786;2024-02-15T15:45:56;5.15;;;1.20;;
26377;SDS011;14078;50.974;6.786;2024-02-15T15:48:23;2.55;;;1.23;;
26377;SDS011;14078;50.974;6.786;2024-02-15T15:50:51;2.75;;;1.67;;
26377;SDS011;14078;50.974;6.786;2024-02-15T15:53:19;1.55;;;0.90;;
26377;SDS011;14078;50.974;6.786;2024-02-15T15:55:46;1.55;;;1.00;;
26377;SDS011;14078;50.974;6.786;2024-02-15T15:58:13;2.03;;;0.93;;
26377;SDS011;14078;50.974;6.786;2024-02-15T16:00:40;2.17;;;0.95;;
26377;SDS011;14078;50.974;6.786;2024-02-15T16:03:06;3.47;;;1.30;;
26377;SDS011;14078;50.974;6.786;2024-02-15T16:05:33;1.38;;;0.90;;
26377;SDS011;14078;50.974;6.786;2024-02-15T16:08:02;2.03;;;1.02;;
26377;SDS011;14078;50.974;6.786;2024-02-15T16:10:29;4.20;;;1.70;;
26377;SDS011;14078;50.974;6.786;2024-02-15T16:12:56;1.30;;;1.17;;
26377;SDS011;14078;50.974;6.786;2024-02-15T16:15:25;6.63;;;1.08;;
26377;SDS011;14078;50.974;6.786;2024-02-15T16:17:51;3.17;;;1.10;;
26377;SDS011;14078;50.974;6.786;2024-02-15T16:20:19;1.60;;;1.13;;
26377;SDS011;14078;50.974;6.786;2024-02-15T16:22:46;3.63;;;1.25;;
26377;SDS011;14078;50.974;6.786;2024-02-15T16:25:15;1.75;;;0.90;;
26377;SDS011;14078;50.974;6.786;2024-02-15T16:27:42;1.77;;;1.13;;
26377;SDS011;14078;50.974;6.786;2024-02-15T16:30:09;1.65;;;0.90;;
26377;SDS011;14078;50.974;6.786;2024-02-15T16:32:38;2.20;;;0.90;;
26377;SDS011;14078;50.974;6.786;2024-02-15T16:35:06;1.25;;;0.95;;
26377;SDS011;14078;50.974;6.786;2024-02-15T16:37:36;2.30;;;0.75;;
26377;SDS011;14078;50.974;6.786;2024-02-15T16:40:04;2.15;;;1.25;;
26377;SDS011;14078;50.974;6.786;2024-02-15T16:42:34;5.93;;;1.38;;
26377;SDS011;14078;50.974;6.786;2024-02-15T16:45:02;2.22;;;1.05;;
26377;SDS011;14078;50.974;6.786;2024-02-15T16:47:29;2.72;;;1.30;;
26377;SDS011;14078;50.974;6.786;2024-02-15T16:49:55;3.97;;;1.15;;
26377;SDS011;14078;50.974;6.786;2024-02-15T16:52:22;2.25;;;1.10;;
26377;SDS011;14078;50.974;6.786;2024-02-15T16:54:50;1.75;;;0.90;;
26377;SDS011;14078;50.974;6.786;2024-02-15T16:57:17;4.28;;;0.95;;
26377;SDS011;14078;50.974;6.786;2024-02-15T16:59:45;2.70;;;0.90;;
26377;SDS011;14078;50.974;6.786;2024-02-15T17:02:12;1.15;;;0.77;;
26377;SDS011;14078;50.974;6.786;2024-02-15T17:04:38;7.82;;;0.90;;
26377;SDS011;14078;50.974;6.786;2024-02-15T17:07:05;5.65;;;0.90;;
26377;SDS011;14078;50.974;6.786;2024-02-15T17:09:32;3.70;;;1.17;;
26377;SDS011;14078;50.974;6.786;2024-02-15T17:11:58;1.63;;;0.95;;
26377;SDS011;14078;50.974;6.786;2024-02-15T17:14:26;4.43;;;0.85;;
26377;SDS011;14078;50.974;6.786;2024-02-15T17:16:55;6.35;;;1.08;;
26377;SDS011;14078;50.974;6.786;2024-02-15T17:19:22;3.05;;;1.08;;
26377;SDS011;14078;50.974;6.786;2024-02-15T17:21:48;3.58;;;1.15;;
26377;SDS011;14078;50.974;6.786;2024-02-15T17:24:15;1.55;;;0.60;;
26377;SDS011;14078;50.974;6.786;2024-02-15T17:26:44;1.65;;;0.80;;
26377;SDS011;14078;50.974;6.786;2024-02-15T17:34:07;2.05;;;0.98;;
26377;SDS011;14078;50.974;6.786;2024-02-15T17:36:36;3.42;;;0.65;;
26377;SDS011;14078;50.974;6.786;2024-02-15T17:39:03;2.10;;;1.10;;
26377;SDS011;14078;50.974;6.786;2024-02-15T17:41:30;1.35;;;0.90;;
26377;SDS011;14078;50.974;6.786;2024-02-15T17:43:57;3.10;;;1.25;;
26377;SDS011;14078;50.974;6.786;2024-02-15T17:51:20;2.42;;;0.80;;
26377;SDS011;14078;50.974;6.786;2024-02-15T17:53:46;2.20;;;0.80;;
26377;SDS011;14078;50.974;6.786;2024-02-15T17:56:13;3.45;;;1.10;;
26377;SDS011;14078;50.974;6.786;2024-02-15T17:58:40;2.97;;;1.02;;
26377;SDS011;14078;50.974;6.786;2024-02-15T18:01:07;3.83;;;1.33;;
26377;SDS011;14078;50.974;6.786;2024-02-15T18:03:33;1.30;;;1.05;;
26377;SDS011;14078;50.974;6.786;2024-02-15T18:06:00;3.70;;;1.10;;
26377;SDS011;14078;50.974;6.786;2024-02-15T18:08:28;2.78;;;1.02;;
26377;SDS011;14078;50.974;6.786;2024-02-15T18:10:55;1.25;;;0.73;;
26377;SDS011;14078;50.974;6.786;2024-02-15T18:13:25;3.25;;;0.95;;
26377;SDS011;14078;50.974;6.786;2024-02-15T18:15:53;1.48;;;1.02;;
26377;SDS011;14078;50.974;6.786;2024-02-15T18:18:19;2.67;;;0.60;;
26377;SDS011;14078;50.974;6.786;2024-02-15T18:20:47;4.82;;;1.08;;
26377;SDS011;14078;50.974;6.786;2024-02-15T18:23:14;2.90;;;0.95;;
26377;SDS011;14078;50.974;6.786;2024-02-15T18:25:44;3.42;;;1.30;;
26377;SDS011;14078;50.974;6.786;2024-02-15T18:28:11;3.50;;;1.00;;
26377;SDS011;14078;50.974;6.786;2024-02-15T18:30:39;5.13;;;1.40;;
26377;SDS011;14078;50.974;6.786;2024-02-15T18:33:07;3.30;;;0.98;;
26377;SDS011;14078;50.974;6.786;2024-02-15T18:35:35;2.10;;;1.30;;
26377;SDS011;14078;50.974;6.786;2024-02-15T18:38:05;2.33;;;1.15;;
26377;SDS011;14078;50.974;6.786;2024-02-15T18:40:32;2.88;;;1.13;;
26377;SDS011;14078;50.974;6.786;2024-02-15T18:43:01;0.77;;;0.75;;
26377;SDS011;14078;50.974;6.786;2024-02-15T18:45:29;3.55;;;1.35;;
26377;SDS011;14078;50.974;6.786;2024-02-15T18:47:56;2.35;;;1.30;;
26377;SDS011;14078;50.974;6.786;2024-02-15T18:50:23;2.67;;;1.00;;
26377;SDS011;14078;50.974;6.786;2024-02-15T18:52:50;3.47;;;1.15;;
26377;SDS011;14078;50.974;6.786;2024-02-15T18:55:18;4.82;;;1.33;;
26377;SDS011;14078;50.974;6.786;2024-02-15T18:57:44;1.92;;;1.13;;
26377;SDS011;14078;50.974;6.786;2024-02-15T19:00:13;3.72;;;1.83;;
26377;SDS011;14078;50.974;6.786;2024-02-15T19:02:43;2.95;;;1.60;;
26377;SDS011;14078;50.974;6.786;2024-02-15T19:05:10;6.57;;;1.42;;
26377;SDS011;14078;50.974;6.786;2024-02-15T19:07:40;2.65;;;1.38;;
26377;SDS011;14078;50.974;6.786;2024-02-15T19:10:07;2.08;;;1.42;;
26377;SDS011;14078;50.974;6.786;2024-02-15T19:12:33;1.10;;;1.00;;
26377;SDS011;14078;50.974;6.786;2024-02-15T19:15:02;3.88;;;1.30;;